createdAt,value
2022-08-09T00:00:59.442Z,40.12
2022-08-09T00:04:06.366Z,40.45
2022-08-09T00:06:23.284Z,40.21
2022-08-09T00:08:52.331Z,40.45
2022-08-09T00:11:27.704Z,40.44
2022-08-09T00:14:17.471Z,40.20
2022-08-09T00:16:51.601Z,40.21
2022-08-09T00:19:21.314Z,40.68
2022-08-09T00:21:55.878Z,40.74
2022-08-09T00:24:27.291Z,40.46
2022-08-09T00:26:55.945Z,40.69
2022-08-09T00:29:39.847Z,40.50
2022-08-09T00:32:26.772Z,40.77
2022-08-09T00:34:58.644Z,40.97
2022-08-09T00:37:26.957Z,40.87
2022-08-09T00:40:13.225Z,41.04
2022-08-09T00:44:15.309Z,40.55
2022-08-09T00:45:34.688Z,40.87
2022-08-09T00:48:06.094Z,40.98
2022-08-09T00:50:34.168Z,40.88
2022-08-09T00:53:10.200Z,40.73
2022-08-09T00:56:05.226Z,40.62
2022-08-09T00:58:27.777Z,40.61
2022-08-09T01:01:03.382Z,40.66
2022-08-09T01:03:46.415Z,41.25
2022-08-09T01:06:22.102Z,40.94
2022-08-09T01:09:06.070Z,41.02
2022-08-09T01:11:53.233Z,40.90
2022-08-09T01:14:30.727Z,41.28
2022-08-09T01:17:04.441Z,40.98
2022-08-09T01:19:57.228Z,40.74
2022-08-09T01:24:00.528Z,40.91
2022-08-09T01:26:11.194Z,41.31
2022-08-09T01:28:47.173Z,41.26
2022-08-09T01:32:28.184Z,41.14
2022-08-09T01:34:14.024Z,41.04
2022-08-09T01:36:46.412Z,40.87
2022-08-09T01:39:17.662Z,41.35
2022-08-09T01:41:53.556Z,41.22
2022-08-09T01:44:32.108Z,41.19
2022-08-09T01:47:01.982Z,41.14
2022-08-09T01:49:39.232Z,41.33
2022-08-09T01:52:12.185Z,41.14
2022-08-09T01:54:47.460Z,40.95
2022-08-09T01:57:21.035Z,41.03
2022-08-09T02:00:00.153Z,41.35
2022-08-09T02:02:32.748Z,41.33
2022-08-09T02:05:15.549Z,41.02
2022-08-09T02:08:39.589Z,41.09
2022-08-09T02:10:40.298Z,41.27
2022-08-09T02:13:12.861Z,41.19
2022-08-09T02:15:50.916Z,41.00
2022-08-09T02:18:23.704Z,41.20
2022-08-09T02:20:56.476Z,41.26
2022-08-09T02:23:40.029Z,41.08
2022-08-09T02:26:27.185Z,41.09
2022-08-09T02:29:00.314Z,40.90
2022-08-09T02:31:36.382Z,41.20
2022-08-09T02:34:13.637Z,41.14
2022-08-09T02:36:56.560Z,41.18
2022-08-09T02:39:34.075Z,41.01
2022-08-09T02:42:13.191Z,40.96
2022-08-09T02:44:43.805Z,41.33
2022-08-09T02:47:16.284Z,41.16
2022-08-09T02:49:55.369Z,40.96
2022-08-09T02:52:37.334Z,41.19
2022-08-09T02:55:19.813Z,41.11
2022-08-09T02:58:00.693Z,41.06
2022-08-09T03:00:57.714Z,41.20
2022-08-09T03:04:12.726Z,41.12
2022-08-09T03:06:21.726Z,41.26
2022-08-09T03:08:55.621Z,41.22
2022-08-09T03:11:29.883Z,41.18
2022-08-09T03:14:16.204Z,41.07
2022-08-09T03:16:48.187Z,41.20
2022-08-09T03:19:58.232Z,41.08
2022-08-09T03:22:12.334Z,41.10
2022-08-09T03:25:06.454Z,41.37
2022-08-09T03:27:45.141Z,41.25
2022-08-09T03:30:29.980Z,41.21
2022-08-09T03:33:13.019Z,41.06
2022-08-09T03:36:13.667Z,41.02
2022-08-09T03:38:41.774Z,41.06
2022-08-09T03:41:15.112Z,41.56
2022-08-09T03:44:03.125Z,41.37
2022-08-09T03:46:32.686Z,41.32
2022-08-09T03:49:03.949Z,41.42
2022-08-09T03:51:44.452Z,41.46
2022-08-09T03:54:31.257Z,41.37
2022-08-09T03:57:02.083Z,41.39
2022-08-09T03:59:42.960Z,41.68
2022-08-09T04:02:27.030Z,41.61
2022-08-09T04:04:58.662Z,41.75
2022-08-09T04:07:52.165Z,41.62
2022-08-09T04:10:20.287Z,42.01
2022-08-09T04:12:51.425Z,41.77
2022-08-09T04:15:38.985Z,41.94
2022-08-09T04:18:09.581Z,42.10
2022-08-09T04:20:44.873Z,41.99
2022-08-09T04:23:16.705Z,41.84
2022-08-09T04:25:51.981Z,41.94
2022-08-09T04:28:33.059Z,41.97
2022-08-09T04:31:05.932Z,41.95
2022-08-09T04:33:51.381Z,41.94
2022-08-09T04:36:23.447Z,41.99
2022-08-09T04:38:53.736Z,42.12
2022-08-09T04:41:23.940Z,42.24
2022-08-09T04:44:05.574Z,42.53
2022-08-09T04:46:57.358Z,42.74
2022-08-09T04:49:52.099Z,42.49
2022-08-09T04:52:18.717Z,43.04
2022-08-09T04:54:57.116Z,43.09
2022-08-09T04:57:25.460Z,43.18
2022-08-09T04:59:55.222Z,43.11
2022-08-09T05:02:24.285Z,43.16
2022-08-09T05:04:56.133Z,43.47
2022-08-09T05:07:29.105Z,43.48
2022-08-09T05:10:02.128Z,43.46
2022-08-09T05:12:33.006Z,43.91
2022-08-09T05:15:11.141Z,43.80
2022-08-09T05:18:38.874Z,44.06
2022-08-09T05:20:29.861Z,44.14
2022-08-09T05:23:54.299Z,43.98
2022-08-09T05:25:50.973Z,44.27
2022-08-09T05:28:20.141Z,44.30
2022-08-09T05:30:49.140Z,44.06
2022-08-09T05:33:19.642Z,44.47
2022-08-09T05:35:54.652Z,44.16
2022-08-09T05:38:25.332Z,43.94
2022-08-09T05:40:57.621Z,44.05
2022-08-09T05:43:29.045Z,44.31
2022-08-09T05:45:59.983Z,43.99
2022-08-09T05:48:32.896Z,44.07
2022-08-09T05:51:43.072Z,44.45
2022-08-09T05:53:56.450Z,44.10
2022-08-09T05:56:28.249Z,43.96
2022-08-09T05:58:58.490Z,43.76
2022-08-09T06:01:33.589Z,43.94
2022-08-09T06:04:10.403Z,43.70
2022-08-09T06:06:45.224Z,43.68
2022-08-09T06:09:23.153Z,43.76
2022-08-09T06:12:08.093Z,43.78
2022-08-09T06:14:36.392Z,44.12
2022-08-09T06:17:05.193Z,44.06
2022-08-09T06:19:38.560Z,43.90
2022-08-09T06:22:15.392Z,43.99
2022-08-09T06:24:43.680Z,43.57
2022-08-09T06:27:15.627Z,43.99
2022-08-09T06:29:48.343Z,43.62
2022-08-09T06:32:59.876Z,43.75
2022-08-09T06:35:20.232Z,44.13
2022-08-09T06:37:53.153Z,43.95
2022-08-09T06:40:33.699Z,43.63
2022-08-09T06:43:03.654Z,44.04
2022-08-09T06:46:06.284Z,43.50
2022-08-09T06:48:30.249Z,43.82
2022-08-09T06:50:59.813Z,43.50
2022-08-09T06:53:33.140Z,43.56
2022-08-09T06:56:07.396Z,43.29
2022-08-09T07:00:46.415Z,43.35
2022-08-09T07:01:27.519Z,42.73
2022-08-09T07:04:04.393Z,42.90
2022-08-09T07:06:32.843Z,43.35
2022-08-09T07:09:02.677Z,42.84
2022-08-09T07:11:45.515Z,42.63
2022-08-09T07:14:26.413Z,42.62
2022-08-09T07:16:58.367Z,42.37
2022-08-09T07:19:26.675Z,42.58
2022-08-09T07:21:58.839Z,42.33
2022-08-09T07:24:32.603Z,42.33
2022-08-09T07:27:10.877Z,41.77
2022-08-09T07:29:57.031Z,42.02
2022-08-09T07:32:32.334Z,41.65
2022-08-09T07:35:10.170Z,41.48
2022-08-09T07:37:43.129Z,41.25
2022-08-09T07:40:16.987Z,40.74
2022-08-09T07:42:55.447Z,40.42
2022-08-09T07:45:39.372Z,40.61
2022-08-09T07:48:25.502Z,40.89
2022-08-09T07:51:03.240Z,40.78
2022-08-09T07:54:05.263Z,40.68
2022-08-09T07:56:36.960Z,40.37
2022-08-09T07:59:14.173Z,40.46
2022-08-09T08:01:56.007Z,40.87
2022-08-09T08:04:31.312Z,40.81
2022-08-09T08:07:21.558Z,40.79
2022-08-09T08:09:59.751Z,41.01
2022-08-09T08:12:42.924Z,40.89
2022-08-09T08:15:13.822Z,40.64
2022-08-09T08:17:52.969Z,40.20
2022-08-09T08:20:30.808Z,40.44
2022-08-09T08:23:06.618Z,40.39
2022-08-09T08:25:46.433Z,40.03
2022-08-09T08:28:18.393Z,39.62
2022-08-09T08:30:53.927Z,39.60
2022-08-09T08:33:24.881Z,39.98
2022-08-09T08:35:59.217Z,39.97
2022-08-09T08:38:29.144Z,40.07
2022-08-09T08:40:59.061Z,39.39
2022-08-09T08:43:27.896Z,39.52
2022-08-09T08:46:10.190Z,39.06
2022-08-09T08:48:51.853Z,39.38
2022-08-09T08:51:22.506Z,39.24
2022-08-09T08:54:03.159Z,39.02
2022-08-09T08:56:35.306Z,38.94
2022-08-09T08:59:18.792Z,38.76
2022-08-09T09:01:52.335Z,39.08
2022-08-09T09:04:31.940Z,38.80
2022-08-09T09:07:11.046Z,38.11
2022-08-09T09:10:02.444Z,38.16
2022-08-09T09:12:35.476Z,38.16
2022-08-09T09:15:06.627Z,37.80
2022-08-09T09:17:48.669Z,37.73
2022-08-09T09:20:22.157Z,37.67
2022-08-09T09:22:55.849Z,37.69
2022-08-09T09:26:00.904Z,38.33
2022-08-09T09:28:39.045Z,38.54
2022-08-09T09:31:17.600Z,38.76
2022-08-09T09:34:14.492Z,39.31
2022-08-09T09:36:53.183Z,39.88
2022-08-09T09:39:25.517Z,39.91
2022-08-09T09:41:54.251Z,40.18
2022-08-09T09:44:31.830Z,40.63
2022-08-09T09:47:10.034Z,40.44
2022-08-09T09:50:13.443Z,40.60
2022-08-09T09:52:36.527Z,40.85
2022-08-09T09:55:28.708Z,40.58
2022-08-09T09:58:16.284Z,40.54
2022-08-09T10:00:53.665Z,40.47
2022-08-09T10:03:42.954Z,40.18
2022-08-09T10:06:12.839Z,40.37
2022-08-09T10:08:55.069Z,40.02
2022-08-09T10:12:01.413Z,39.99
2022-08-09T10:14:27.756Z,39.65
2022-08-09T10:17:17.643Z,39.59
2022-08-09T10:19:52.823Z,39.98
2022-08-09T10:22:33.045Z,39.76
2022-08-09T10:25:13.933Z,40.09
2022-08-09T10:27:45.306Z,40.16
2022-08-09T10:34:07.777Z,40.01
2022-08-09T10:36:02.184Z,40.36
2022-08-09T10:38:41.713Z,39.97
2022-08-09T10:41:20.964Z,40.33
2022-08-09T10:43:59.296Z,39.92
2022-08-09T10:46:57.777Z,40.11
2022-08-09T10:49:51.738Z,40.00
2022-08-09T10:52:42.769Z,40.32
2022-08-09T10:55:24.297Z,40.04
2022-08-09T10:57:55.825Z,40.18
2022-08-09T11:01:10.865Z,40.16
2022-08-09T11:03:47.022Z,40.43
2022-08-09T11:06:20.956Z,40.16
2022-08-09T11:08:53.280Z,39.98
2022-08-09T11:11:23.030Z,39.73
2022-08-09T11:14:28.950Z,39.94
2022-08-09T11:17:01.389Z,39.80
2022-08-09T11:20:11.743Z,39.86
2022-08-09T11:23:00.835Z,39.64
2022-08-09T11:25:49.317Z,39.71
2022-08-09T11:28:56.687Z,39.73
2022-08-09T11:31:49.919Z,39.58
2022-08-09T11:34:43.912Z,39.43
2022-08-09T11:37:31.360Z,39.55
2022-08-09T11:40:11.693Z,39.27
2022-08-09T11:42:47.109Z,39.43
2022-08-09T11:45:37.691Z,39.19
2022-08-09T11:48:26.212Z,39.13
2022-08-09T11:53:00.478Z,39.10
2022-08-09T11:54:13.590Z,38.79
2022-08-09T11:56:48.133Z,39.05
2022-08-09T11:59:30.579Z,38.80
2022-08-09T12:02:34.430Z,38.62
2022-08-09T12:04:54.625Z,38.81
2022-08-09T12:07:41.421Z,38.53
2022-08-09T12:10:14.487Z,38.61
2022-08-09T12:13:03.799Z,38.54
2022-08-09T12:15:52.096Z,38.45
2022-08-09T12:18:29.877Z,38.28
2022-08-09T12:21:02.771Z,38.21
2022-08-09T12:23:47.602Z,38.20
2022-08-09T12:26:25.996Z,38.24
2022-08-09T12:29:12.695Z,38.03
2022-08-09T12:31:59.132Z,38.16
2022-08-09T12:34:35.894Z,37.95
2022-08-09T12:37:22.204Z,38.22
2022-08-09T12:40:07.711Z,37.90
2022-08-09T12:42:37.349Z,37.90
2022-08-09T12:45:32.244Z,37.93
2022-08-09T12:47:55.084Z,37.69
2022-08-09T12:50:25.027Z,37.72
2022-08-09T12:53:09.351Z,37.84
2022-08-09T12:56:15.479Z,37.70
2022-08-09T12:58:31.396Z,37.74
2022-08-09T13:01:04.281Z,37.64
2022-08-09T13:03:57.384Z,37.68
2022-08-09T13:06:33.835Z,37.56
2022-08-09T13:09:09.877Z,37.55
2022-08-09T13:11:42.450Z,37.67
2022-08-09T13:14:42.609Z,37.73
2022-08-09T13:17:02.765Z,37.71
2022-08-09T13:20:06.964Z,37.47
2022-08-09T13:22:37.160Z,37.48
2022-08-09T13:25:13.977Z,37.43
2022-08-09T13:27:55.085Z,37.35
2022-08-09T13:31:10.960Z,37.42
2022-08-09T13:33:23.662Z,37.54
2022-08-09T13:36:38.708Z,37.64
2022-08-09T13:38:57.455Z,37.70
2022-08-09T13:41:57.837Z,37.52
2022-08-09T13:44:17.788Z,37.77
2022-08-09T13:47:26.615Z,37.45
2022-08-09T13:49:39.456Z,37.41
2022-08-09T13:52:23.464Z,37.59
2022-08-09T13:54:59.817Z,37.59
2022-08-09T13:57:36.829Z,37.47
2022-08-09T14:00:12.898Z,37.43
2022-08-09T14:03:04.609Z,37.51
2022-08-09T14:05:59.260Z,37.47
2022-08-09T14:08:24.329Z,37.54
2022-08-09T14:10:55.082Z,37.41
2022-08-09T14:14:14.896Z,37.48
2022-08-09T14:16:15.989Z,37.46
2022-08-09T14:18:49.371Z,37.27
2022-08-09T14:21:20.853Z,37.20
2022-08-09T14:23:53.602Z,37.22
2022-08-09T14:26:25.346Z,37.49
2022-08-09T14:28:59.084Z,37.42
2022-08-09T14:31:35.918Z,37.34
2022-08-09T14:34:17.303Z,37.47
2022-08-09T14:36:55.793Z,37.43
2022-08-09T14:39:46.238Z,37.33
2022-08-09T14:42:11.806Z,37.36
2022-08-09T14:44:59.074Z,37.35
2022-08-09T14:47:45.233Z,37.32
2022-08-09T14:50:17.446Z,37.17
2022-08-09T14:52:50.051Z,37.26
2022-08-09T14:55:20.262Z,37.03
2022-08-09T14:57:49.422Z,37.08
2022-08-09T15:00:18.152Z,37.14
2022-08-09T15:02:52.082Z,37.21
2022-08-09T15:05:21.081Z,37.22
2022-08-09T15:07:54.808Z,36.99
2022-08-09T15:10:25.449Z,37.00
2022-08-09T15:12:53.729Z,36.89
2022-08-09T15:15:23.607Z,37.11
2022-08-09T15:17:53.508Z,36.94
2022-08-09T15:22:01.100Z,36.84
2022-08-09T15:24:01.344Z,36.96
2022-08-09T15:25:58.817Z,36.89
2022-08-09T15:28:28.648Z,36.95
2022-08-09T15:31:13.429Z,37.01
2022-08-09T15:34:15.411Z,36.58
2022-08-09T15:36:35.489Z,36.23
2022-08-09T15:39:03.614Z,36.16
2022-08-09T15:41:32.757Z,35.58
2022-08-09T15:44:01.974Z,35.35
2022-08-09T15:46:33.165Z,35.21
2022-08-09T15:49:22.756Z,34.94
2022-08-09T15:52:04.998Z,34.54
2022-08-09T15:54:44.715Z,34.34
2022-08-09T15:57:18.897Z,34.16
2022-08-09T15:59:51.503Z,33.82
2022-08-09T16:02:27.252Z,34.05
2022-08-09T16:04:56.910Z,34.10
2022-08-09T16:07:25.803Z,34.58
2022-08-09T16:10:02.372Z,34.76
2022-08-09T16:12:33.981Z,34.90
2022-08-09T16:15:04.927Z,35.27
2022-08-09T16:17:52.998Z,35.33
2022-08-09T16:20:27.714Z,35.84
2022-08-09T16:22:58.488Z,35.90
2022-08-09T16:25:30.633Z,35.94
2022-08-09T16:28:08.114Z,36.02
2022-08-09T16:30:44.432Z,36.11
2022-08-09T16:33:15.915Z,36.31
2022-08-09T16:35:53.151Z,36.32
2022-08-09T16:38:26.280Z,36.52
2022-08-09T16:40:55.495Z,36.33
2022-08-09T16:43:24.464Z,36.47
2022-08-09T16:45:54.873Z,36.58
2022-08-09T16:48:41.704Z,36.78
2022-08-09T16:51:14.301Z,36.66
2022-08-09T16:54:02.383Z,36.75
2022-08-09T16:56:31.504Z,36.54
2022-08-09T16:59:01.038Z,36.75
2022-08-09T17:01:29.900Z,36.98
2022-08-09T17:04:02.313Z,36.99
2022-08-09T17:08:40.879Z,37.08
2022-08-09T17:09:46.169Z,37.24
2022-08-09T17:12:10.989Z,37.32
2022-08-09T17:14:39.000Z,37.25
2022-08-09T17:17:26.626Z,37.62
2022-08-09T17:20:29.003Z,37.73
2022-08-09T17:22:49.536Z,37.77
2022-08-09T17:25:18.814Z,37.87
2022-08-09T17:27:49.397Z,37.92
2022-08-09T17:30:25.898Z,37.65
2022-08-09T17:32:57.543Z,37.98
2022-08-09T17:35:29.161Z,37.69
2022-08-09T17:38:11.941Z,37.85
2022-08-09T17:40:42.851Z,37.73
2022-08-09T17:43:34.685Z,37.81
2022-08-09T17:46:06.695Z,37.85
2022-08-09T17:48:39.507Z,37.83
2022-08-09T17:51:18.628Z,37.85
2022-08-09T17:53:53.625Z,37.64
2022-08-09T17:56:27.137Z,37.82
2022-08-09T17:58:58.870Z,37.62
2022-08-09T18:01:58.146Z,37.77
2022-08-09T18:04:17.047Z,37.70
2022-08-09T18:06:54.435Z,37.74
2022-08-09T18:09:40.971Z,37.97
2022-08-09T18:12:15.478Z,37.97
2022-08-09T18:14:53.916Z,37.75
2022-08-09T18:17:27.197Z,37.81
2022-08-09T18:20:59.747Z,37.88
2022-08-09T18:23:04.857Z,37.88
2022-08-09T18:25:50.329Z,37.94
2022-08-09T18:30:35.698Z,38.11
2022-08-09T18:31:09.986Z,37.86
2022-08-09T18:33:38.106Z,37.92
2022-08-09T18:36:14.282Z,37.71
2022-08-09T18:38:57.344Z,37.88
2022-08-09T18:41:34.702Z,37.73
2022-08-09T18:44:12.455Z,37.84
2022-08-09T18:46:46.883Z,37.74
2022-08-09T18:49:21.153Z,37.89
2022-08-09T18:51:54.938Z,37.63
2022-08-09T18:54:29.691Z,38.00
2022-08-09T18:57:05.461Z,37.65
2022-08-09T18:59:37.286Z,38.03
2022-08-09T19:02:17.695Z,38.07
2022-08-09T19:04:47.952Z,37.72
2022-08-09T19:07:33.890Z,37.84
2022-08-09T19:10:17.058Z,37.76
2022-08-09T19:12:53.067Z,37.62
2022-08-09T19:15:35.634Z,37.83
2022-08-09T19:18:05.549Z,37.67
2022-08-09T19:20:38.990Z,37.87
2022-08-09T19:23:08.259Z,37.79
2022-08-09T19:26:02.363Z,37.90
2022-08-09T19:28:38.010Z,37.73
2022-08-09T19:31:07.827Z,37.89
2022-08-09T19:33:36.222Z,38.09
2022-08-09T19:36:05.156Z,38.11
2022-08-09T19:38:39.979Z,38.09
2022-08-09T19:41:08.494Z,38.15
2022-08-09T19:44:01.758Z,38.06
2022-08-09T19:46:34.973Z,38.08
2022-08-09T19:50:05.043Z,38.08
2022-08-09T19:51:55.240Z,37.99
2022-08-09T19:54:25.353Z,38.00
2022-08-09T19:56:54.024Z,37.98
2022-08-09T19:59:58.546Z,37.88
2022-08-09T20:03:23.749Z,37.74
2022-08-09T20:05:09.734Z,37.73
2022-08-09T20:07:58.742Z,37.70
2022-08-09T20:10:36.320Z,37.62
2022-08-09T20:13:06.434Z,37.62
2022-08-09T20:16:34.296Z,37.73
2022-08-09T20:18:28.075Z,37.48
2022-08-09T20:20:57.244Z,37.63
2022-08-09T20:23:39.868Z,37.69
2022-08-09T20:26:09.951Z,37.55
2022-08-09T20:28:47.876Z,37.44
2022-08-09T20:31:19.672Z,37.22
2022-08-09T20:33:52.445Z,37.41
2022-08-09T20:36:27.091Z,37.44
2022-08-09T20:40:16.585Z,37.71
2022-08-09T20:41:44.020Z,37.28
2022-08-09T20:44:14.619Z,37.20
2022-08-09T20:46:44.968Z,37.00
2022-08-09T20:49:15.771Z,37.12
2022-08-09T20:51:45.177Z,37.34
2022-08-09T20:54:18.970Z,37.08
2022-08-09T20:56:49.702Z,37.12
2022-08-09T20:59:24.921Z,37.04
2022-08-09T21:02:17.589Z,36.90
2022-08-09T21:05:53.445Z,36.98
2022-08-09T21:07:38.649Z,37.10
2022-08-09T21:10:09.673Z,36.99
2022-08-09T21:12:39.820Z,36.92
2022-08-09T21:15:12.584Z,36.80
2022-08-09T21:18:25.888Z,36.76
2022-08-09T21:20:31.109Z,36.70
2022-08-09T21:23:00.385Z,36.69
2022-08-09T21:25:56.101Z,36.97
2022-08-09T21:28:34.546Z,36.93
2022-08-09T21:31:17.109Z,36.67
2022-08-09T21:33:52.412Z,36.82
2022-08-09T21:36:28.599Z,36.47
2022-08-09T21:38:59.283Z,36.44
2022-08-09T21:42:03.930Z,36.50
2022-08-09T21:44:33.111Z,36.60
2022-08-09T21:47:04.785Z,36.18
2022-08-09T21:49:40.054Z,36.22
2022-08-09T21:52:15.010Z,36.13
2022-08-09T21:54:50.776Z,36.37
2022-08-09T21:57:38.495Z,36.34
2022-08-09T22:00:25.711Z,36.17
2022-08-09T22:02:58.876Z,36.08
2022-08-09T22:05:36.012Z,36.54
2022-08-09T22:08:14.659Z,36.41
2022-08-09T22:11:50.318Z,36.47
2022-08-09T22:13:36.836Z,36.28
2022-08-09T22:16:09.033Z,36.75
2022-08-09T22:18:53.370Z,36.80
2022-08-09T22:21:27.475Z,36.52
2022-08-09T22:24:16.574Z,36.62
2022-08-09T22:26:51.026Z,36.88
2022-08-09T22:29:24.098Z,37.03
2022-08-09T22:31:57.975Z,36.98
2022-08-09T22:34:26.837Z,36.72
2022-08-09T22:36:56.409Z,37.03
2022-08-09T22:39:57.936Z,36.85
2022-08-09T22:42:22.264Z,36.98
2022-08-09T22:45:00.099Z,36.92
2022-08-09T22:48:15.791Z,37.30
2022-08-09T22:50:29.727Z,37.15
2022-08-09T22:52:59.850Z,37.30
2022-08-09T22:56:06.428Z,37.39
2022-08-09T22:58:32.703Z,37.18
2022-08-09T23:01:02.790Z,37.59
2022-08-09T23:04:05.590Z,37.70
2022-08-09T23:06:30.019Z,37.37
2022-08-09T23:09:04.910Z,37.59
2022-08-09T23:11:32.879Z,37.69
2022-08-09T23:14:02.893Z,37.73
2022-08-09T23:16:30.969Z,37.68
2022-08-09T23:18:58.969Z,37.78
2022-08-09T23:21:33.273Z,37.33
2022-08-09T23:24:05.974Z,37.51
2022-08-09T23:26:34.904Z,37.45
2022-08-09T23:29:02.916Z,37.78
2022-08-09T23:31:30.874Z,37.76
2022-08-09T23:33:58.929Z,37.31
2022-08-09T23:36:27.988Z,37.37
2022-08-09T23:38:56.045Z,37.57
2022-08-09T23:41:28.021Z,37.42
2022-08-09T23:43:57.881Z,37.35
2022-08-09T23:46:25.866Z,37.29
2022-08-09T23:48:53.963Z,37.34
2022-08-09T23:51:22.075Z,37.35
2022-08-09T23:53:50.422Z,37.68
2022-08-09T23:56:39.484Z,37.52
2022-08-09T23:59:09.849Z,37.51
